Time,TemperatureF,DewpointF,PressureIn,WindDirection,WindDirectionDegrees,WindSpeedMPH,WindSpeedGustMPH,Humidity,HourlyPrecipIn,Conditions,Clouds,dailyrainin,SoftwareType,DateUTC
2013-06-21 08:30:00,66.7,63.1,30.17,NE,55,0.0,0.0,88,0.00,CLR,FEW,0.00,WeatherDisplay:10.37,2013-06-21 12:30:00,
2013-06-21 08:35:00,67.3,63.3,30.17,East,90,0.0,0.0,87,0.00,CLR,FEW,0.00,WeatherDisplay:10.37,2013-06-21 12:35:00,
2013-06-21 08:40:00,68.4,63.3,30.17,ESE,108,0.0,0.0,84,0.00,CLR,FEW,0.00,WeatherDisplay:10.37,2013-06-21 12:40:00,
2013-06-21 08:50:00,68.9,63.2,30.17,ESE,111,0.0,0.0,82,0.00,CLR,FEW,0.00,WeatherDisplay:10.37,2013-06-21 12:50:00,
2013-06-21 09:00:00,68.9,63.2,30.17,SE,133,0.0,0.0,82,0.00,CLR,FEW,0.00,WeatherDisplay:10.37,2013-06-21 13:00:00,
2013-06-21 09:10:00,68.9,62.8,30.17,SE,130,0.0,0.0,81,0.00,CLR,FEW,0.00,WeatherDisplay:10.37,2013-06-21 13:10:00,
2013-06-21 09:20:00,70.5,64.0,30.17,East,97,0.0,0.0,80,0.00,CLR,FEW,0.00,WeatherDisplay:10.37,2013-06-21 13:20:00,
2013-06-21 09:25:00,70.9,64.4,30.17,East,99,0.0,0.0,80,0.00,CLR,FEW,0.00,WeatherDisplay:10.37,2013-06-21 13:25:00,
2013-06-21 09:30:00,72.0,64.4,30.17,ESE,104,0.0,0.0,77,0.00,CLR,FEW,0.00,WeatherDisplay:10.37,2013-06-21 13:30:00,
2013-06-21 09:35:00,73.2,65.2,30.17,SE,130,0.0,0.0,76,0.00,CLR,FEW,0.00,WeatherDisplay:10.37,2013-06-21 13:35:00,
2013-06-21 09:40:00,73.9,65.5,30.17,ESE,120,0.0,0.0,75,0.00,CLR,FEW,0.00,WeatherDisplay:10.37,2013-06-21 13:40:00,
2013-06-21 09:50:00,75.9,64.2,30.17,East,101,0.0,0.0,67,0.00,CLR,FEW,0.00,WeatherDisplay:10.37,2013-06-21 13:50:00,
2013-06-21 09:59:00,76.6,64.9,30.17,East,99,0.0,0.0,67,0.00,CLR,FEW,0.00,WeatherDisplay:10.37,2013-06-21 13:59:00,
2013-06-21 10:04:00,76.5,65.1,30.17,East,94,0.0,0.0,68,0.00,CLR,FEW,0.00,WeatherDisplay:10.37,2013-06-21 14:04:00,
2013-06-21 10:10:00,76.1,64.3,30.17,East,89,0.0,0.0,67,0.00,CLR,FEW,0.00,WeatherDisplay:10.37,2013-06-21 14:10:00,
2013-06-21 10:15:00,75.4,64.5,30.17,ESE,108,0.0,0.0,69,0.00,CLR,FEW,0.00,WeatherDisplay:10.37,2013-06-21 14:15:00,
2013-06-21 10:20:00,75.2,64.3,30.17,ESE,120,0.0,0.0,69,0.00,CLR,FEW,0.00,WeatherDisplay:10.37,2013-06-21 14:20:00,
2013-06-21 10:30:00,74.5,64.1,30.17,ESE,120,0.0,0.0,70,0.00,CLR,FEW,0.00,WeatherDisplay:10.37,2013-06-21 14:30:00,
2013-06-21 10:40:00,76.5,64.3,30.17,ESE,120,0.0,0.0,66,0.00,CLR,FEW,0.00,WeatherDisplay:10.37,2013-06-21 14:40:00,
2013-06-21 10:45:00,77.5,63.9,30.17,ESE,120,0.0,0.0,63,0.00,CLR,FEW,0.00,WeatherDisplay:10.37,2013-06-21 14:45:00,
2013-06-21 10:50:00,78.3,63.2,30.17,ESE,120,0.0,0.0,60,0.00,CLR,FEW,0.00,WeatherDisplay:10.37,2013-06-21 14:50:00,
2013-06-21 11:00:00,79.0,63.4,30.17,South,175,0.0,0.0,59,0.00,CLR,FEW,0.00,WeatherDisplay:10.37,2013-06-21 15:00:00,
2013-06-21 11:04:00,79.5,63.9,30.17,SSE,166,0.0,0.0,59,0.00,CLR,FEW,0.00,WeatherDisplay:10.37,2013-06-21 15:04:00,
2013-06-21 11:10:00,79.7,64.1,30.17,South,191,0.0,0.0,59,0.00,CLR,FEW,0.00,WeatherDisplay:10.37,2013-06-21 15:10:00,
2013-06-21 11:20:00,80.2,65.6,30.17,ESE,118,0.0,0.0,61,0.00,CLR,FEW,0.00,WeatherDisplay:10.37,2013-06-21 15:20:00,
2013-06-21 11:25:00,80.4,65.3,30.17,ESE,121,0.0,0.0,60,0.00,CLR,FEW,0.00,WeatherDisplay:10.37,2013-06-21 15:25:00,
2013-06-21 11:30:00,80.6,64.9,30.17,ESE,118,0.0,0.0,59,0.00,CLR,FEW,0.00,WeatherDisplay:10.37,2013-06-21 15:30:00,
2013-06-21 11:44:00,81.9,66.1,30.17,SW,216,0.0,0.0,59,0.00,CLR,FEW,0.00,WeatherDisplay:10.37,2013-06-21 15:44:00,
2013-06-21 11:50:00,81.9,66.1,30.17,South,188,0.0,0.0,59,0.00,CLR,FEW,0.00,WeatherDisplay:10.37,2013-06-21 15:50:00,
2013-06-21 11:55:00,82.6,65.3,30.17,SSE,155,0.0,0.0,56,0.00,CLR,FEW,0.00,WeatherDisplay:10.37,2013-06-21 15:55:00,
2013-06-21 12:00:00,82.6,65.3,30.14,SE,137,0.0,0.0,56,0.00,CLR,FEW,0.00,WeatherDisplay:10.37,2013-06-21 16:00:00,
2013-06-21 12:05:00,82.6,64.3,30.14,South,170,0.0,0.0,54,0.00,CLR,FEW,0.00,WeatherDisplay:10.37,2013-06-21 16:05:00,
2013-06-21 12:10:00,82.8,66.0,30.17,South,174,0.0,0.0,57,0.00,CLR,FEW,0.00,WeatherDisplay:10.37,2013-06-21 16:10:00,
2013-06-21 12:20:00,82.6,64.3,30.17,SSE,168,0.0,0.0,54,0.00,CLR,FEW,0.00,WeatherDisplay:10.37,2013-06-21 16:20:00,
2013-06-21 12:30:00,82.8,64.9,30.17,SW,219,0.0,0.0,55,0.00,CLR,FEW,0.00,WeatherDisplay:10.37,2013-06-21 16:30:00,
2013-06-21 12:40:00,83.1,65.3,30.17,WSW,247,0.0,0.0,55,0.00,CLR,FEW,0.00,WeatherDisplay:10.37,2013-06-21 16:40:00,
2013-06-21 12:45:00,83.1,65.3,30.17,SW,226,0.0,0.0,55,0.00,CLR,FEW,0.00,WeatherDisplay:10.37,2013-06-21 16:45:00,
2013-06-21 12:55:00,82.8,64.9,30.17,SSW,208,0.0,0.0,55,0.00,CLR,FEW,0.00,WeatherDisplay:10.37,2013-06-21 16:55:00,
2013-06-21 13:04:00,83.5,65.1,30.17,SW,221,0.0,0.0,54,0.00,CLR,FEW,0.00,WeatherDisplay:10.37,2013-06-21 17:04:00,
2013-06-21 13:10:00,83.1,64.2,30.17,West,267,0.0,0.0,53,0.00,CLR,FEW,0.00,WeatherDisplay:10.37,2013-06-21 17:10:00,
2013-06-21 13:20:00,83.5,66.1,30.17,WSW,257,0.0,0.0,56,0.00,CLR,FEW,0.00,WeatherDisplay:10.37,2013-06-21 17:20:00,
2013-06-21 13:30:00,83.8,66.5,30.17,WNW,289,0.0,0.0,56,0.00,CLR,FEW,0.00,WeatherDisplay:10.37,2013-06-21 17:30:00,
2013-06-21 13:35:00,84.0,66.6,30.17,West,274,0.0,0.0,56,0.00,CLR,FEW,0.00,WeatherDisplay:10.37,2013-06-21 17:35:00,
2013-06-21 13:44:00,82.8,64.4,30.17,SW,223,0.0,0.0,54,0.00,CLR,FEW,0.00,WeatherDisplay:10.37,2013-06-21 17:44:00,
2013-06-21 13:50:00,83.1,64.2,30.14,SSW,210,0.0,0.0,53,0.00,CLR,FEW,0.00,WeatherDisplay:10.37,2013-06-21 17:50:00,
2013-06-21 13:55:00,83.7,65.8,30.14,South,190,0.0,0.0,55,0.00,CLR,FEW,0.00,WeatherDisplay:10.37,2013-06-21 17:55:00,
2013-06-21 14:05:00,84.0,66.1,30.14,SSW,202,0.0,0.0,55,0.00,CLR,FEW,0.00,WeatherDisplay:10.37,2013-06-21 18:05:00,
2013-06-21 14:10:00,84.0,66.1,30.14,SSW,206,0.0,0.0,55,0.00,CLR,FEW,0.00,WeatherDisplay:10.37,2013-06-21 18:10:00,
2013-06-21 14:15:00,84.0,65.6,30.14,SW,227,0.0,0.0,54,0.00,CLR,FEW,0.00,WeatherDisplay:10.37,2013-06-21 18:15:00,
2013-06-21 14:20:00,83.8,65.4,30.14,West,275,0.0,0.0,54,0.00,CLR,FEW,0.00,WeatherDisplay:10.37,2013-06-21 18:20:00,
2013-06-21 14:25:00,84.0,66.1,30.14,WSW,247,0.0,0.0,55,0.00,CLR,FEW,0.00,WeatherDisplay:10.37,2013-06-21 18:25:00,
2013-06-21 14:30:00,84.2,65.2,30.14,South,180,0.0,0.0,53,0.00,CLR,FEW,0.00,WeatherDisplay:10.37,2013-06-21 18:30:00,
2013-06-21 14:35:00,84.0,64.5,30.14,SW,230,0.0,0.0,52,0.00,CLR,FEW,0.00,WeatherDisplay:10.37,2013-06-21 18:35:00,
2013-06-21 14:50:00,84.4,66.4,30.14,South,188,0.0,0.0,55,0.00,CLR,FEW,0.00,WeatherDisplay:10.37,2013-06-21 18:50:00,
2013-06-21 14:55:00,84.6,66.6,30.14,SE,136,0.0,0.0,55,0.00,CLR,FEW,0.00,WeatherDisplay:10.37,2013-06-21 18:55:00,
2013-06-21 14:59:00,83.8,65.4,30.14,SSE,161,0.0,0.0,54,0.00,CLR,FEW,0.00,WeatherDisplay:10.37,2013-06-21 18:59:00,
2013-06-21 15:05:00,84.2,64.7,30.14,SSW,207,0.0,0.0,52,0.00,CLR,FEW,0.00,WeatherDisplay:10.37,2013-06-21 19:05:00,
2013-06-21 15:10:00,84.0,65.6,30.14,SSE,161,0.0,0.0,54,0.00,CLR,FEW,0.00,WeatherDisplay:10.37,2013-06-21 19:10:00,
2013-06-21 15:15:00,84.2,65.8,30.14,ESE,105,0.0,0.0,54,0.00,CLR,FEW,0.00,WeatherDisplay:10.37,2013-06-21 19:15:00,
2013-06-21 15:25:00,84.0,64.5,30.14,SE,133,0.0,0.0,52,0.00,CLR,FEW,0.00,WeatherDisplay:10.37,2013-06-21 19:25:00,
2013-06-21 15:30:00,84.7,66.3,30.14,South,175,0.0,0.0,54,0.00,CLR,FEW,0.00,WeatherDisplay:10.37,2013-06-21 19:30:00,
2013-06-21 15:34:00,84.7,66.3,30.14,South,172,0.0,0.0,54,0.00,CLR,FEW,0.00,WeatherDisplay:10.37,2013-06-21 19:34:00,
2013-06-21 15:40:00,84.6,64.4,30.11,South,180,0.0,0.0,51,0.00,CLR,FEW,0.00,WeatherDisplay:10.37,2013-06-21 19:40:00,
2013-06-21 15:45:00,84.6,66.6,30.11,SSW,197,0.0,0.0,55,0.00,CLR,FEW,0.00,WeatherDisplay:10.37,2013-06-21 19:45:00,
2013-06-21 15:55:00,84.6,67.1,30.11,SE,133,0.0,0.0,56,0.00,CLR,FEW,0.00,WeatherDisplay:10.37,2013-06-21 19:55:00,
2013-06-21 16:00:00,84.9,66.4,30.11,SSE,149,0.0,0.0,54,0.00,CLR,FEW,0.00,WeatherDisplay:10.37,2013-06-21 20:00:00,
2013-06-21 16:05:00,84.7,66.3,30.11,SSE,149,0.0,0.0,54,0.00,CLR,FEW,0.00,WeatherDisplay:10.37,2013-06-21 20:05:00,
2013-06-21 16:10:00,84.7,66.3,30.11,SE,132,0.0,0.0,54,0.00,CLR,FEW,0.00,WeatherDisplay:10.37,2013-06-21 20:10:00,
2013-06-21 16:20:00,84.4,65.9,30.11,South,174,0.0,0.0,54,0.00,CLR,FEW,0.00,WeatherDisplay:10.37,2013-06-21 20:20:00,
2013-06-21 16:25:00,84.0,66.1,30.11,SSE,156,0.0,0.0,55,0.00,CLR,FEW,0.00,WeatherDisplay:10.37,2013-06-21 20:25:00,
2013-06-21 16:30:00,84.0,66.1,30.11,SE,134,0.0,0.0,55,0.00,CLR,FEW,0.00,WeatherDisplay:10.37,2013-06-21 20:30:00,
2013-06-21 16:40:00,84.2,66.3,30.11,South,185,0.0,0.0,55,0.00,CLR,FEW,0.00,WeatherDisplay:10.37,2013-06-21 20:40:00,
2013-06-21 16:45:00,84.2,66.8,30.11,SSW,194,0.0,0.0,56,0.00,CLR,FEW,0.00,WeatherDisplay:10.37,2013-06-21 20:45:00,
2013-06-21 16:55:00,84.4,66.4,30.11,SE,130,0.0,0.0,55,0.00,CLR,FEW,0.00,WeatherDisplay:10.37,2013-06-21 20:55:00,
2013-06-21 17:00:00,84.4,65.9,30.11,SSE,150,0.0,0.0,54,0.00,CLR,FEW,0.00,WeatherDisplay:10.37,2013-06-21 21:00:00,
2013-06-21 17:05:00,84.2,66.8,30.11,SE,131,0.0,0.0,56,0.00,CLR,FEW,0.00,WeatherDisplay:10.37,2013-06-21 21:05:00,
2013-06-21 17:10:00,83.8,65.9,30.11,SSE,148,0.0,0.0,55,0.00,CLR,FEW,0.00,WeatherDisplay:10.37,2013-06-21 21:10:00,
2013-06-21 17:15:00,84.0,66.1,30.11,SSE,152,0.0,0.0,55,0.00,CLR,FEW,0.00,WeatherDisplay:10.37,2013-06-21 21:15:00,
2013-06-21 17:20:00,84.4,67.0,30.11,SSE,148,0.0,0.0,56,0.00,CLR,FEW,0.00,WeatherDisplay:10.37,2013-06-21 21:20:00,
2013-06-21 17:30:00,83.8,66.5,30.11,ESE,106,0.0,1.0,56,0.00,CLR,FEW,0.00,WeatherDisplay:10.37,2013-06-21 21:30:00,
2013-06-21 17:40:00,83.8,65.4,30.11,SE,136,0.0,0.0,54,0.00,CLR,FEW,0.00,WeatherDisplay:10.37,2013-06-21 21:40:00,
2013-06-21 17:50:00,83.5,65.6,30.11,SE,130,0.0,1.0,55,0.00,CLR,FEW,0.00,WeatherDisplay:10.37,2013-06-21 21:50:00,
2013-06-21 17:55:00,83.5,65.6,30.11,ESE,123,0.0,0.0,55,0.00,CLR,FEW,0.00,WeatherDisplay:10.37,2013-06-21 21:55:00,
2013-06-21 18:00:00,83.5,65.6,30.11,ESE,111,0.0,0.0,55,0.00,CLR,FEW,0.00,WeatherDisplay:10.37,2013-06-21 22:00:00,
2013-06-21 18:05:00,82.9,65.6,30.11,South,170,0.0,0.0,56,0.00,CLR,FEW,0.00,WeatherDisplay:10.37,2013-06-21 22:05:00,
2013-06-21 18:10:00,82.9,65.6,30.08,South,191,0.0,0.0,56,0.00,CLR,FEW,0.00,WeatherDisplay:10.37,2013-06-21 22:10:00,
2013-06-21 18:20:00,81.7,66.4,30.08,ESE,119,0.0,0.0,60,0.00,CLR,FEW,0.00,WeatherDisplay:10.37,2013-06-21 22:20:00,
2013-06-21 18:30:00,81.7,66.0,30.08,SSW,208,0.0,0.0,59,0.00,CLR,FEW,0.00,WeatherDisplay:10.37,2013-06-21 22:30:00,
2013-06-21 18:40:00,81.5,65.8,30.08,SSW,203,0.0,0.0,59,0.00,CLR,FEW,0.00,WeatherDisplay:10.37,2013-06-21 22:40:00,
2013-06-21 18:50:00,81.7,65.5,30.08,SSW,206,0.0,0.0,58,0.00,CLR,FEW,0.00,WeatherDisplay:10.37,2013-06-21 22:50:00,
2013-06-21 18:55:00,81.7,65.5,30.08,SSW,196,0.0,0.0,58,0.00,CLR,FEW,0.00,WeatherDisplay:10.37,2013-06-21 22:55:00,
2013-06-21 19:00:00,81.1,65.9,30.08,SE,126,0.0,0.0,60,0.00,CLR,FEW,0.00,WeatherDisplay:10.37,2013-06-21 23:00:00,
2013-06-21 19:05:00,80.6,65.9,30.08,ESE,105,0.0,0.0,61,0.00,CLR,FEW,0.00,WeatherDisplay:10.37,2013-06-21 23:05:00,
2013-06-21 19:10:00,80.4,65.7,30.08,SSE,147,0.0,0.0,61,0.00,CLR,FEW,0.00,WeatherDisplay:10.37,2013-06-21 23:10:00,
2013-06-21 19:20:00,79.9,65.7,30.08,SW,235,0.0,0.0,62,0.00,CLR,FEW,0.00,WeatherDisplay:10.37,2013-06-21 23:20:00,
2013-06-21 19:30:00,80.1,65.9,30.08,South,180,0.0,0.0,62,0.00,CLR,FEW,0.00,WeatherDisplay:10.37,2013-06-21 23:30:00,
2013-06-21 19:40:00,80.4,65.7,30.08,ESE,118,0.0,0.0,61,0.00,CLR,FEW,0.00,WeatherDisplay:10.37,2013-06-21 23:40:00,
2013-06-21 19:50:00,79.9,65.2,30.08,ESE,115,0.0,0.0,61,0.00,CLR,FEW,0.00,WeatherDisplay:10.37,2013-06-21 23:50:00,
2013-06-21 20:00:00,79.3,65.6,30.08,ESE,115,0.0,0.0,63,0.00,CLR,FEW,0.00,WeatherDisplay:10.37,2013-06-22 00:00:00,
2013-06-21 20:05:00,79.0,65.3,30.08,ESE,115,0.0,0.0,63,0.00,CLR,FEW,0.00,WeatherDisplay:10.37,2013-06-22 00:05:00,
2013-06-21 20:10:00,78.4,65.7,30.08,ESE,115,0.0,0.0,65,0.00,CLR,FEW,0.00,WeatherDisplay:10.37,2013-06-22 00:10:00,
2013-06-21 20:15:00,78.1,65.4,30.08,ESE,115,0.0,0.0,65,0.00,CLR,FEW,0.00,WeatherDisplay:10.37,2013-06-22 00:15:00,
2013-06-21 20:25:00,77.7,65.5,30.08,ESE,115,0.0,0.0,66,0.00,CLR,FEW,0.00,WeatherDisplay:10.37,2013-06-22 00:25:00,
2013-06-21 20:30:00,76.5,65.9,30.08,ESE,115,0.0,0.0,70,0.00,CLR,FEW,0.00,WeatherDisplay:10.37,2013-06-22 00:30:00,
2013-06-21 20:40:00,75.9,65.8,30.08,ESE,115,0.0,0.0,71,0.00,CLR,FEW,0.00,WeatherDisplay:10.37,2013-06-22 00:40:00,
2013-06-21 20:50:00,75.6,64.7,30.08,ESE,115,0.0,0.0,69,0.00,CLR,FEW,0.00,WeatherDisplay:10.37,2013-06-22 00:50:00,
2013-06-21 21:00:00,75.0,65.0,30.08,ESE,115,0.0,0.0,71,0.00,CLR,FEW,0.00,WeatherDisplay:10.37,2013-06-22 01:00:00,
2013-06-21 21:05:00,74.5,64.9,30.08,ESE,115,0.0,0.0,72,0.00,CLR,FEW,0.00,WeatherDisplay:10.37,2013-06-22 01:05:00,
2013-06-21 21:10:00,74.3,65.1,30.08,ESE,115,0.0,0.0,73,0.00,CLR,FEW,0.00,WeatherDisplay:10.37,2013-06-22 01:10:00,
2013-06-21 21:20:00,73.6,65.2,30.08,ESE,115,0.0,0.0,75,0.00,CLR,FEW,0.00,WeatherDisplay:10.37,2013-06-22 01:20:00,
2013-06-21 21:25:00,73.4,65.0,30.08,ESE,115,0.0,0.0,75,0.00,CLR,FEW,0.00,WeatherDisplay:10.37,2013-06-22 01:25:00,
2013-06-21 21:30:00,73.2,64.8,30.08,ESE,115,0.0,0.0,75,0.00,CLR,FEW,0.00,WeatherDisplay:10.37,2013-06-22 01:30:00,
2013-06-21 21:35:00,73.0,64.3,30.08,ESE,115,0.0,0.0,74,0.00,CLR,FEW,0.00,WeatherDisplay:10.37,2013-06-22 01:35:00,
2013-06-21 21:40:00,73.0,64.6,30.08,ESE,115,0.0,0.0,75,0.00,CLR,FEW,0.00,WeatherDisplay:10.37,2013-06-22 01:40:00,
2013-06-21 21:50:00,72.5,64.1,30.08,ESE,115,0.0,0.0,75,0.00,CLR,FEW,0.00,WeatherDisplay:10.37,2013-06-22 01:50:00,
2013-06-21 22:00:00,72.0,64.0,30.08,ESE,115,0.0,0.0,76,0.00,CLR,FEW,0.00,WeatherDisplay:10.37,2013-06-22 02:00:00,
2013-06-21 22:05:00,71.6,63.6,30.08,ESE,115,0.0,0.0,76,0.00,CLR,FEW,0.00,WeatherDisplay:10.37,2013-06-22 02:05:00,
2013-06-21 22:10:00,71.6,63.6,30.08,ESE,115,0.0,0.0,76,0.00,CLR,FEW,0.00,WeatherDisplay:10.37,2013-06-22 02:10:00,
2013-06-21 22:20:00,70.9,63.7,30.08,ESE,115,0.0,0.0,78,0.00,CLR,FEW,0.00,WeatherDisplay:10.37,2013-06-22 02:20:00,
2013-06-21 22:25:00,70.9,63.7,30.08,ESE,115,0.0,0.0,78,0.00,CLR,FEW,0.00,WeatherDisplay:10.37,2013-06-22 02:25:00,
2013-06-21 22:30:00,70.7,63.9,30.08,ESE,115,0.0,0.0,79,0.00,CLR,FEW,0.00,WeatherDisplay:10.37,2013-06-22 02:30:00,
2013-06-21 22:40:00,70.3,63.9,30.08,ESE,115,0.0,0.0,80,0.00,CLR,FEW,0.00,WeatherDisplay:10.37,2013-06-22 02:40:00,
2013-06-21 22:50:00,70.0,63.5,30.08,ESE,115,0.0,0.0,80,0.00,CLR,FEW,0.00,WeatherDisplay:10.37,2013-06-22 02:50:00,
2013-06-21 22:55:00,70.0,63.5,30.08,ESE,115,0.0,0.0,80,0.00,CLR,FEW,0.00,WeatherDisplay:10.37,2013-06-22 02:55:00,
2013-06-21 23:00:00,69.6,63.2,30.08,ESE,115,0.0,0.0,80,0.00,CLR,FEW,0.00,WeatherDisplay:10.37,2013-06-22 03:00:00,
2013-06-21 23:05:00,69.4,63.4,30.08,ESE,115,0.0,0.0,81,0.00,CLR,FEW,0.00,WeatherDisplay:10.37,2013-06-22 03:05:00,
2013-06-21 23:10:00,69.4,63.7,30.08,ESE,115,0.0,0.0,82,0.00,CLR,FEW,0.00,WeatherDisplay:10.37,2013-06-22 03:10:00,
2013-06-21 23:20:00,69.3,63.9,30.08,ESE,115,0.0,0.0,83,0.00,CLR,FEW,0.00,WeatherDisplay:10.37,2013-06-22 03:20:00,
2013-06-21 23:25:00,69.1,64.0,30.08,ESE,115,0.0,0.0,84,0.00,CLR,FEW,0.00,WeatherDisplay:10.37,2013-06-22 03:25:00,
2013-06-21 23:30:00,68.9,63.9,30.08,ESE,115,0.0,0.0,84,0.00,CLR,FEW,0.00,WeatherDisplay:10.37,2013-06-22 03:30:00,
2013-06-21 23:40:00,68.7,63.7,30.08,ESE,115,0.0,0.0,84,0.00,CLR,FEW,0.00,WeatherDisplay:10.37,2013-06-22 03:40:00,
2013-06-21 23:45:00,69.1,64.0,30.06,ESE,115,0.0,0.0,84,0.00,CLR,FEW,0.00,WeatherDisplay:10.37,2013-06-22 03:45:00,
2013-06-21 23:50:00,68.4,63.3,30.06,ESE,115,0.0,0.0,84,0.00,CLR,FEW,0.00,WeatherDisplay:10.37,2013-06-22 03:50:00,